Time,TemperatureF,DewpointF,PressureIn,WindDirection,WindDirectionDegrees,WindSpeedMPH,WindSpeedGustMPH,Humidity,HourlyPrecipIn,Conditions,Clouds,dailyrainin,SoftwareType,DateUTC
2013-02-24 00:01:00,26.0,17.0,-100.00,WNW,300,3.0,7.0,69,0.00,,,-99.99,,2013-02-24 06:01:00,
2013-02-24 00:11:00,26.0,17.0,-100.00,WNW,300,3.0,7.0,69,0.00,,,-99.99,,2013-02-24 06:11:00,
2013-02-24 00:21:00,26.0,17.0,-100.00,WNW,300,3.0,7.0,69,0.00,,,-99.99,,2013-02-24 06:21:00,
2013-02-24 00:52:00,25.0,17.0,-100.00,WNW,295,4.0,9.0,71,0.00,,,-99.99,,2013-02-24 06:52:00,
2013-02-24 01:01:00,25.0,17.0,-100.00,WNW,295,4.0,9.0,71,0.00,,,-99.99,,2013-02-24 07:01:00,
2013-02-24 01:12:00,25.0,17.0,-100.00,WNW,295,4.0,9.0,71,0.00,,,-99.99,,2013-02-24 07:12:00,
2013-02-24 01:21:00,25.0,17.0,-100.00,WNW,295,4.0,9.0,71,0.00,,,-99.99,,2013-02-24 07:21:00,
2013-02-24 01:52:00,25.0,17.0,-100.00,NW,310,4.0,10.0,72,0.00,,,-99.99,,2013-02-24 07:52:00,
2013-02-24 02:01:00,25.0,17.0,-100.00,NW,310,4.0,10.0,72,0.00,,,-99.99,,2013-02-24 08:01:00,
2013-02-24 02:11:00,25.0,17.0,-100.00,NW,310,4.0,10.0,72,0.00,,,-99.99,,2013-02-24 08:11:00,
2013-02-24 02:22:00,25.0,17.0,-100.00,NW,310,4.0,10.0,72,0.00,,,-99.99,,2013-02-24 08:22:00,
2013-02-24 02:54:00,24.0,16.0,-100.00,WNW,300,2.0,7.0,72,0.00,,,-99.99,,2013-02-24 08:54:00,
2013-02-24 03:01:00,24.0,16.0,-100.00,WNW,300,2.0,7.0,72,0.00,,,-99.99,,2013-02-24 09:01:00,
2013-02-24 03:11:00,24.0,16.0,-100.00,WNW,300,2.0,7.0,72,0.00,,,-99.99,,2013-02-24 09:11:00,
2013-02-24 03:21:00,24.0,16.0,-100.00,WNW,300,2.0,7.0,72,0.00,,,-99.99,,2013-02-24 09:21:00,
2013-02-24 03:52:00,24.0,16.0,-100.00,West,270,2.0,5.0,72,0.00,,,-99.99,,2013-02-24 09:52:00,
2013-02-24 04:01:00,24.0,16.0,-100.00,West,270,2.0,5.0,72,0.00,,,-99.99,,2013-02-24 10:01:00,
2013-02-24 04:11:00,24.0,16.0,-100.00,West,270,2.0,5.0,72,0.00,,,-99.99,,2013-02-24 10:11:00,
2013-02-24 04:21:00,24.0,16.0,-100.00,West,270,2.0,5.0,72,0.00,,,-99.99,,2013-02-24 10:21:00,
2013-02-24 04:52:00,24.0,16.0,-100.00,WNW,290,2.0,4.0,73,0.00,,,-99.99,,2013-02-24 10:52:00,
2013-02-24 05:01:00,24.0,16.0,-100.00,WNW,290,2.0,4.0,73,0.00,,,-99.99,,2013-02-24 11:01:00,
2013-02-24 05:11:00,24.0,16.0,-100.00,WNW,290,2.0,4.0,73,0.00,,,-99.99,,2013-02-24 11:11:00,
2013-02-24 05:21:00,24.0,16.0,-100.00,WNW,290,2.0,4.0,73,0.00,,,-99.99,,2013-02-24 11:21:00,
2013-02-24 05:53:00,24.0,17.0,-100.00,West,280,0.0,4.0,73,0.00,,,-99.99,,2013-02-24 11:53:00,
2013-02-24 06:01:00,24.0,17.0,-100.00,West,280,0.0,4.0,73,0.00,,,-99.99,,2013-02-24 12:01:00,
2013-02-24 06:11:00,24.0,17.0,-100.00,West,280,0.0,4.0,73,0.00,,,-99.99,,2013-02-24 12:11:00,
2013-02-24 06:22:00,24.0,17.0,-100.00,West,280,0.0,4.0,73,0.00,,,-99.99,,2013-02-24 12:22:00,
2013-02-24 06:57:00,25.0,17.0,-100.00,NNW,340,1.0,4.0,73,0.00,,,-99.99,,2013-02-24 12:57:00,
2013-02-24 07:12:00,25.0,17.0,-100.00,NNW,340,1.0,4.0,73,0.00,,,-99.99,,2013-02-24 13:12:00,
2013-02-24 07:26:00,25.0,17.0,-100.00,NNW,340,1.0,4.0,73,0.00,,,-99.99,,2013-02-24 13:26:00,
2013-02-24 07:55:00,25.0,18.0,-100.00,West,265,1.0,2.0,73,0.00,,,-99.99,,2013-02-24 13:55:00,
2013-02-24 08:04:00,25.0,18.0,-100.00,West,265,1.0,2.0,73,0.00,,,-99.99,,2013-02-24 14:04:00,
2013-02-24 08:14:00,25.0,18.0,-100.00,West,265,1.0,2.0,73,0.00,,,-99.99,,2013-02-24 14:14:00,
2013-02-24 08:24:00,25.0,18.0,-100.00,West,265,1.0,2.0,73,0.00,,,-99.99,,2013-02-24 14:24:00,
2013-02-24 08:54:00,27.0,18.0,-100.00,WNW,300,2.0,3.0,70,0.00,,,-99.99,,2013-02-24 14:54:00,
2013-02-24 09:03:00,27.0,18.0,-100.00,WNW,300,2.0,3.0,70,0.00,,,-99.99,,2013-02-24 15:03:00,
2013-02-24 09:13:00,27.0,18.0,-100.00,WNW,300,2.0,3.0,70,0.00,,,-99.99,,2013-02-24 15:13:00,
2013-02-24 09:23:00,27.0,18.0,-100.00,WNW,300,2.0,3.0,70,0.00,,,-99.99,,2013-02-24 15:23:00,
2013-02-24 09:53:00,31.0,18.0,-100.00,NW,325,1.0,4.0,59,0.00,,,-99.99,,2013-02-24 15:53:00,
2013-02-24 10:01:00,31.0,18.0,-100.00,NW,325,1.0,4.0,59,0.00,,,-99.99,,2013-02-24 16:01:00,
2013-02-24 10:11:00,31.0,18.0,-100.00,NW,325,1.0,4.0,59,0.00,,,-99.99,,2013-02-24 16:11:00,
2013-02-24 10:21:00,31.0,18.0,-100.00,NW,325,1.0,4.0,59,0.00,,,-99.99,,2013-02-24 16:21:00,
2013-02-24 10:52:00,33.0,15.0,-100.00,WSW,255,1.0,5.0,46,0.00,,,-99.99,,2013-02-24 16:52:00,
2013-02-24 11:01:00,33.0,15.0,-100.00,WSW,255,1.0,5.0,46,0.00,,,-99.99,,2013-02-24 17:01:00,
2013-02-24 11:11:00,33.0,15.0,-100.00,WSW,255,1.0,5.0,46,0.00,,,-99.99,,2013-02-24 17:11:00,
2013-02-24 11:21:00,33.0,15.0,-100.00,WSW,255,1.0,5.0,46,0.00,,,-99.99,,2013-02-24 17:21:00,
2013-02-24 11:53:00,33.0,11.0,-100.00,North,0,5.0,7.0,40,0.00,,,-99.99,,2013-02-24 17:53:00,
2013-02-24 12:52:00,35.0,10.0,-100.00,WNW,290,1.0,5.0,36,0.00,,,-99.99,,2013-02-24 18:52:00,
2013-02-24 13:52:00,35.0,10.0,-100.00,NNW,330,2.0,5.0,35,0.00,,,-99.99,,2013-02-24 19:52:00,
2013-02-24 14:52:00,34.0,10.0,-100.00,NW,315,2.0,6.0,36,0.00,,,-99.99,,2013-02-24 20:52:00,
2013-02-24 15:52:00,33.0,10.0,-100.00,NW,305,2.0,4.0,38,0.00,,,-99.99,,2013-02-24 21:52:00,
2013-02-24 16:52:00,32.0,11.0,-100.00,West,265,1.0,7.0,41,0.00,,,-99.99,,2013-02-24 22:52:00,
2013-02-24 17:52:00,31.0,12.0,-100.00,NW,325,0.0,1.0,44,0.00,,,-99.99,,2013-02-24 23:52:00,
2013-02-24 18:52:00,29.0,12.0,-100.00,NNE,30,1.0,3.0,49,0.00,,,-99.99,,2013-02-25 00:52:00,
2013-02-24 19:52:00,25.0,12.0,-100.00,North,0,1.0,1.0,56,0.00,,,-99.99,,2013-02-25 01:52:00,
2013-02-24 20:52:00,21.0,12.0,-100.00,SSE,150,1.0,1.0,66,0.00,,,-99.99,,2013-02-25 02:52:00,
2013-02-24 21:52:00,18.0,11.0,-100.00,NNE,30,0.0,1.0,72,0.00,,,-99.99,,2013-02-25 03:52:00,
2013-02-24 22:01:00,18.0,11.0,-100.00,NNE,30,0.0,1.0,72,0.00,,,-99.99,,2013-02-25 04:01:00,
2013-02-24 22:11:00,18.0,11.0,-100.00,NNE,30,0.0,1.0,72,0.00,,,-99.99,,2013-02-25 04:11:00,
2013-02-24 22:21:00,18.0,11.0,-100.00,NNE,30,0.0,1.0,72,0.00,,,-99.99,,2013-02-25 04:21:00,
2013-02-24 22:52:00,16.0,9.0,-100.00,North,5,0.0,0.0,75,0.00,,,-99.99,,2013-02-25 04:52:00,
2013-02-24 23:52:00,13.0,8.0,-100.00,North,0,0.0,1.0,77,0.00,,,-99.99,,2013-02-25 05:52:00,